sensor_id;sensor_type;location;lat;lon;timestamp;P1;durP1;ratioP1;P2;durP2;ratioP2
52798;SDS011;38667;42.872;74.622;2022-08-03T00:01:50;1.90;;;1.15;;
52798;SDS011;38667;42.872;74.622;2022-08-03T00:04:16;4.70;;;1.50;;
52798;SDS011;38667;42.872;74.622;2022-08-03T00:06:42;2.78;;;1.15;;
52798;SDS011;38667;42.872;74.622;2022-08-03T00:09:09;2.42;;;1.10;;
52798;SDS011;38667;42.872;74.622;2022-08-03T00:11:35;2.83;;;1.15;;
52798;SDS011;38667;42.872;74.622;2022-08-03T00:14:02;1.95;;;1.25;;
52798;SDS011;38667;42.872;74.622;2022-08-03T00:16:30;3.72;;;1.30;;
52798;SDS011;38667;42.872;74.622;2022-08-03T00:18:56;4.43;;;1.40;;
52798;SDS011;38667;42.872;74.622;2022-08-03T00:21:23;2.25;;;1.00;;
52798;SDS011;38667;42.872;74.622;2022-08-03T00:23:49;2.25;;;1.08;;
52798;SDS011;38667;42.872;74.622;2022-08-03T00:26:15;3.20;;;1.65;;
52798;SDS011;38667;42.872;74.622;2022-08-03T00:28:41;4.32;;;1.33;;
52798;SDS011;38667;42.872;74.622;2022-08-03T00:31:08;3.03;;;1.38;;
52798;SDS011;38667;42.872;74.622;2022-08-03T00:33:36;3.22;;;1.10;;
52798;SDS011;38667;42.872;74.622;2022-08-03T00:36:02;4.10;;;1.00;;
52798;SDS011;38667;42.872;74.622;2022-08-03T00:38:28;1.92;;;1.00;;
52798;SDS011;38667;42.872;74.622;2022-08-03T00:40:55;4.00;;;1.58;;
52798;SDS011;38667;42.872;74.622;2022-08-03T00:43:23;2.40;;;1.42;;
52798;SDS011;38667;42.872;74.622;2022-08-03T00:45:50;7.60;;;2.70;;
52798;SDS011;38667;42.872;74.622;2022-08-03T00:48:16;11.05;;;4.13;;
52798;SDS011;38667;42.872;74.622;2022-08-03T00:50:44;18.40;;;8.32;;
52798;SDS011;38667;42.872;74.622;2022-08-03T00:53:11;11.88;;;5.18;;
52798;SDS011;38667;42.872;74.622;2022-08-03T00:55:37;12.00;;;4.88;;
52798;SDS011;38667;42.872;74.622;2022-08-03T00:58:04;11.25;;;4.70;;
52798;SDS011;38667;42.872;74.622;2022-08-03T01:00:32;7.15;;;4.53;;
52798;SDS011;38667;42.872;74.622;2022-08-03T01:02:59;10.13;;;5.15;;
52798;SDS011;38667;42.872;74.622;2022-08-03T01:05:26;14.32;;;4.97;;
52798;SDS011;38667;42.872;74.622;2022-08-03T01:08:01;12.52;;;5.28;;
52798;SDS011;38667;42.872;74.622;2022-08-03T01:10:34;13.80;;;5.90;;
52798;SDS011;38667;42.872;74.622;2022-08-03T01:13:06;16.83;;;6.30;;
52798;SDS011;38667;42.872;74.622;2022-08-03T01:15:42;13.30;;;6.53;;
52798;SDS011;38667;42.872;74.622;2022-08-03T01:18:16;17.42;;;6.60;;
52798;SDS011;38667;42.872;74.622;2022-08-03T01:20:46;13.57;;;6.30;;
52798;SDS011;38667;42.872;74.622;2022-08-03T01:26:19;16.08;;;6.20;;
52798;SDS011;38667;42.872;74.622;2022-08-03T01:29:09;16.90;;;5.63;;
52798;SDS011;38667;42.872;74.622;2022-08-03T01:31:51;14.23;;;6.97;;
52798;SDS011;38667;42.872;74.622;2022-08-03T01:34:21;15.75;;;6.55;;
52798;SDS011;38667;42.872;74.622;2022-08-03T01:36:51;17.92;;;6.22;;
52798;SDS011;38667;42.872;74.622;2022-08-03T01:39:20;15.18;;;6.47;;
52798;SDS011;38667;42.872;74.622;2022-08-03T01:41:49;11.55;;;6.22;;
52798;SDS011;38667;42.872;74.622;2022-08-03T01:44:20;16.33;;;6.30;;
52798;SDS011;38667;42.872;74.622;2022-08-03T01:46:49;13.30;;;6.07;;
52798;SDS011;38667;42.872;74.622;2022-08-03T01:49:16;14.40;;;6.63;;
52798;SDS011;38667;42.872;74.622;2022-08-03T01:51:43;15.95;;;6.57;;
52798;SDS011;38667;42.872;74.622;2022-08-03T01:54:12;17.15;;;6.28;;
52798;SDS011;38667;42.872;74.622;2022-08-03T01:56:40;17.27;;;7.28;;
52798;SDS011;38667;42.872;74.622;2022-08-03T01:59:08;14.07;;;6.38;;
52798;SDS011;38667;42.872;74.622;2022-08-03T02:01:36;16.67;;;6.63;;
52798;SDS011;38667;42.872;74.622;2022-08-03T02:04:06;15.07;;;6.78;;
52798;SDS011;38667;42.872;74.622;2022-08-03T02:06:33;19.27;;;6.45;;
52798;SDS011;38667;42.872;74.622;2022-08-03T02:09:02;15.80;;;7.00;;
52798;SDS011;38667;42.872;74.622;2022-08-03T02:11:30;13.27;;;5.78;;
52798;SDS011;38667;42.872;74.622;2022-08-03T02:13:58;13.95;;;6.25;;
52798;SDS011;38667;42.872;74.622;2022-08-03T02:16:28;11.25;;;5.10;;
52798;SDS011;38667;42.872;74.622;2022-08-03T02:18:57;9.52;;;4.32;;
52798;SDS011;38667;42.872;74.622;2022-08-03T02:21:27;12.50;;;4.70;;
52798;SDS011;38667;42.872;74.622;2022-08-03T02:23:54;7.85;;;3.65;;
52798;SDS011;38667;42.872;74.622;2022-08-03T02:26:21;11.75;;;4.47;;
52798;SDS011;38667;42.872;74.622;2022-08-03T02:28:53;4.30;;;2.47;;
52798;SDS011;38667;42.872;74.622;2022-08-03T02:31:23;5.30;;;2.83;;
52798;SDS011;38667;42.872;74.622;2022-08-03T02:33:56;7.32;;;2.47;;
52798;SDS011;38667;42.872;74.622;2022-08-03T02:36:27;4.88;;;2.47;;
52798;SDS011;38667;42.872;74.622;2022-08-03T02:38:56;6.72;;;2.63;;
52798;SDS011;38667;42.872;74.622;2022-08-03T02:41:26;5.80;;;2.20;;
52798;SDS011;38667;42.872;74.622;2022-08-03T02:43:56;4.85;;;2.70;;
52798;SDS011;38667;42.872;74.622;2022-08-03T02:46:27;6.90;;;3.25;;
52798;SDS011;38667;42.872;74.622;2022-08-03T02:48:55;6.63;;;2.58;;
52798;SDS011;38667;42.872;74.622;2022-08-03T02:51:23;11.20;;;4.45;;
52798;SDS011;38667;42.872;74.622;2022-08-03T02:53:52;10.23;;;3.30;;
52798;SDS011;38667;42.872;74.622;2022-08-03T02:56:26;7.68;;;2.72;;
52798;SDS011;38667;42.872;74.622;2022-08-03T02:58:54;4.97;;;2.38;;
52798;SDS011;38667;42.872;74.622;2022-08-03T03:01:23;7.30;;;2.80;;
52798;SDS011;38667;42.872;74.622;2022-08-03T03:03:52;11.32;;;2.78;;
52798;SDS011;38667;42.872;74.622;2022-08-03T03:06:20;4.93;;;2.60;;
52798;SDS011;38667;42.872;74.622;2022-08-03T03:08:48;5.10;;;2.72;;
52798;SDS011;38667;42.872;74.622;2022-08-03T03:11:17;5.25;;;2.65;;
52798;SDS011;38667;42.872;74.622;2022-08-03T03:13:45;5.65;;;2.97;;
52798;SDS011;38667;42.872;74.622;2022-08-03T03:16:13;7.45;;;3.30;;
52798;SDS011;38667;42.872;74.622;2022-08-03T03:18:41;9.63;;;2.72;;
52798;SDS011;38667;42.872;74.622;2022-08-03T03:21:09;5.82;;;2.70;;
52798;SDS011;38667;42.872;74.622;2022-08-03T03:23:37;9.18;;;2.88;;
52798;SDS011;38667;42.872;74.622;2022-08-03T03:26:05;6.28;;;3.10;;
52798;SDS011;38667;42.872;74.622;2022-08-03T03:28:33;13.85;;;3.50;;
52798;SDS011;38667;42.872;74.622;2022-08-03T03:31:00;6.50;;;2.80;;
52798;SDS011;38667;42.872;74.622;2022-08-03T03:33:28;6.45;;;2.47;;
52798;SDS011;38667;42.872;74.622;2022-08-03T03:35:54;8.27;;;2.95;;
52798;SDS011;38667;42.872;74.622;2022-08-03T03:38:21;10.45;;;2.88;;
52798;SDS011;38667;42.872;74.622;2022-08-03T03:40:48;5.88;;;2.50;;
52798;SDS011;38667;42.872;74.622;2022-08-03T03:43:14;5.97;;;2.83;;
52798;SDS011;38667;42.872;74.622;2022-08-03T03:45:42;7.10;;;3.10;;
52798;SDS011;38667;42.872;74.622;2022-08-03T03:48:09;7.30;;;3.22;;
52798;SDS011;38667;42.872;74.622;2022-08-03T03:50:35;10.00;;;3.65;;
52798;SDS011;38667;42.872;74.622;2022-08-03T03:53:02;12.82;;;3.22;;
52798;SDS011;38667;42.872;74.622;2022-08-03T03:55:29;8.55;;;3.22;;
52798;SDS011;38667;42.872;74.622;2022-08-03T03:57:55;7.75;;;3.10;;
52798;SDS011;38667;42.872;74.622;2022-08-03T04:00:21;5.13;;;3.22;;
52798;SDS011;38667;42.872;74.622;2022-08-03T04:02:49;4.68;;;3.05;;
52798;SDS011;38667;42.872;74.622;2022-08-03T04:05:16;6.25;;;3.00;;
52798;SDS011;38667;42.872;74.622;2022-08-03T04:07:43;9.80;;;3.38;;
52798;SDS011;38667;42.872;74.622;2022-08-03T04:10:19;9.13;;;3.17;;
52798;SDS011;38667;42.872;74.622;2022-08-03T04:12:47;9.35;;;3.05;;
52798;SDS011;38667;42.872;74.622;2022-08-03T04:15:15;7.97;;;3.30;;
52798;SDS011;38667;42.872;74.622;2022-08-03T04:17:43;8.65;;;3.40;;
52798;SDS011;38667;42.872;74.622;2022-08-03T04:20:12;9.68;;;3.03;;
52798;SDS011;38667;42.872;74.622;2022-08-03T04:22:39;4.78;;;2.90;;
52798;SDS011;38667;42.872;74.622;2022-08-03T04:25:06;10.13;;;3.50;;
52798;SDS011;38667;42.872;74.622;2022-08-03T04:27:36;11.95;;;2.78;;
52798;SDS011;38667;42.872;74.622;2022-08-03T04:30:05;4.97;;;2.92;;
52798;SDS011;38667;42.872;74.622;2022-08-03T04:32:33;9.70;;;3.28;;
52798;SDS011;38667;42.872;74.622;2022-08-03T04:35:01;4.55;;;2.50;;
52798;SDS011;38667;42.872;74.622;2022-08-03T04:37:32;6.35;;;2.85;;
52798;SDS011;38667;42.872;74.622;2022-08-03T04:40:04;9.02;;;3.20;;
52798;SDS011;38667;42.872;74.622;2022-08-03T04:42:32;6.93;;;2.70;;
52798;SDS011;38667;42.872;74.622;2022-08-03T04:44:59;5.53;;;3.28;;
52798;SDS011;38667;42.872;74.622;2022-08-03T04:47:27;11.70;;;2.92;;
52798;SDS011;38667;42.872;74.622;2022-08-03T04:49:56;7.15;;;2.55;;
52798;SDS011;38667;42.872;74.622;2022-08-03T04:52:23;8.20;;;3.40;;
52798;SDS011;38667;42.872;74.622;2022-08-03T04:54:51;9.82;;;2.70;;
52798;SDS011;38667;42.872;74.622;2022-08-03T04:57:17;6.43;;;3.10;;
52798;SDS011;38667;42.872;74.622;2022-08-03T04:59:43;8.02;;;2.72;;
52798;SDS011;38667;42.872;74.622;2022-08-03T05:02:10;8.55;;;2.67;;
52798;SDS011;38667;42.872;74.622;2022-08-03T05:04:36;6.30;;;2.88;;
52798;SDS011;38667;42.872;74.622;2022-08-03T05:07:02;5.90;;;2.30;;
52798;SDS011;38667;42.872;74.622;2022-08-03T05:09:29;4.78;;;2.60;;
52798;SDS011;38667;42.872;74.622;2022-08-03T05:11:56;8.35;;;3.30;;
52798;SDS011;38667;42.872;74.622;2022-08-03T05:14:23;4.65;;;2.70;;
52798;SDS011;38667;42.872;74.622;2022-08-03T05:16:49;5.80;;;2.75;;
52798;SDS011;38667;42.872;74.622;2022-08-03T05:19:15;3.45;;;2.10;;
52798;SDS011;38667;42.872;74.622;2022-08-03T05:21:42;5.63;;;2.40;;
52798;SDS011;38667;42.872;74.622;2022-08-03T05:24:08;5.53;;;2.70;;
52798;SDS011;38667;42.872;74.622;2022-08-03T05:26:34;8.13;;;2.78;;
52798;SDS011;38667;42.872;74.622;2022-08-03T05:29:03;6.85;;;3.10;;
52798;SDS011;38667;42.872;74.622;2022-08-03T05:31:29;6.90;;;2.72;;
52798;SDS011;38667;42.872;74.622;2022-08-03T05:33:55;6.22;;;2.85;;
52798;SDS011;38667;42.872;74.622;2022-08-03T05:36:22;10.07;;;3.30;;
52798;SDS011;38667;42.872;74.622;2022-08-03T05:38:48;5.82;;;2.60;;
52798;SDS011;38667;42.872;74.622;2022-08-03T05:41:14;6.55;;;2.65;;
52798;SDS011;38667;42.872;74.622;2022-08-03T05:43:41;4.55;;;2.58;;
52798;SDS011;38667;42.872;74.622;2022-08-03T05:46:09;6.13;;;2.38;;
52798;SDS011;38667;42.872;74.622;2022-08-03T05:48:35;5.30;;;2.88;;
52798;SDS011;38667;42.872;74.622;2022-08-03T05:51:02;6.45;;;3.15;;
52798;SDS011;38667;42.872;74.622;2022-08-03T05:53:28;6.15;;;3.58;;
52798;SDS011;38667;42.872;74.622;2022-08-03T05:55:58;6.25;;;3.58;;
52798;SDS011;38667;42.872;74.622;2022-08-03T05:58:24;6.15;;;3.95;;
52798;SDS011;38667;42.872;74.622;2022-08-03T06:00:50;9.65;;;4.30;;
52798;SDS011;38667;42.872;74.622;2022-08-03T06:03:18;8.40;;;3.42;;
52798;SDS011;38667;42.872;74.622;2022-08-03T06:05:45;8.98;;;3.90;;
52798;SDS011;38667;42.872;74.622;2022-08-03T06:08:11;12.13;;;5.32;;
52798;SDS011;38667;42.872;74.622;2022-08-03T06:10:37;9.30;;;3.00;;
52798;SDS011;38667;42.872;74.622;2022-08-03T06:13:04;11.68;;;2.67;;
52798;SDS011;38667;42.872;74.622;2022-08-03T06:15:30;8.13;;;3.53;;
52798;SDS011;38667;42.872;74.622;2022-08-03T06:17:56;7.50;;;2.92;;
52798;SDS011;38667;42.872;74.622;2022-08-03T06:20:24;5.50;;;2.53;;
52798;SDS011;38667;42.872;74.622;2022-08-03T06:22:51;6.07;;;2.90;;
52798;SDS011;38667;42.872;74.622;2022-08-03T06:25:17;10.57;;;3.40;;
52798;SDS011;38667;42.872;74.622;2022-08-03T06:27:44;7.13;;;2.90;;
52798;SDS011;38667;42.872;74.622;2022-08-03T06:30:10;5.13;;;2.85;;
52798;SDS011;38667;42.872;74.622;2022-08-03T06:32:37;5.93;;;2.50;;
52798;SDS011;38667;42.872;74.622;2022-08-03T06:35:04;13.25;;;2.83;;
52798;SDS011;38667;42.872;74.622;2022-08-03T06:37:32;5.72;;;2.65;;
52798;SDS011;38667;42.872;74.622;2022-08-03T06:40:07;5.85;;;3.15;;
52798;SDS011;38667;42.872;74.622;2022-08-03T06:42:34;5.10;;;2.92;;
52798;SDS011;38667;42.872;74.622;2022-08-03T06:45:00;7.68;;;3.47;;
52798;SDS011;38667;42.872;74.622;2022-08-03T06:47:27;7.75;;;3.22;;
52798;SDS011;38667;42.872;74.622;2022-08-03T06:49:53;6.82;;;3.38;;
52798;SDS011;38667;42.872;74.622;2022-08-03T06:52:19;7.32;;;2.83;;
52798;SDS011;38667;42.872;74.622;2022-08-03T06:54:47;5.15;;;2.95;;
52798;SDS011;38667;42.872;74.622;2022-08-03T06:57:13;7.65;;;3.10;;
52798;SDS011;38667;42.872;74.622;2022-08-03T06:59:39;7.78;;;2.80;;
52798;SDS011;38667;42.872;74.622;2022-08-03T07:02:06;5.57;;;2.50;;
52798;SDS011;38667;42.872;74.622;2022-08-03T07:04:32;6.88;;;2.60;;
52798;SDS011;38667;42.872;74.622;2022-08-03T07:06:58;5.50;;;2.97;;
52798;SDS011;38667;42.872;74.622;2022-08-03T07:09:25;6.40;;;3.05;;
52798;SDS011;38667;42.872;74.622;2022-08-03T07:11:52;5.75;;;3.10;;
52798;SDS011;38667;42.872;74.622;2022-08-03T07:14:19;9.25;;;2.80;;
52798;SDS011;38667;42.872;74.622;2022-08-03T07:16:45;4.05;;;2.80;;
52798;SDS011;38667;42.872;74.622;2022-08-03T07:19:12;6.72;;;2.88;;
52798;SDS011;38667;42.872;74.622;2022-08-03T07:21:38;6.55;;;2.75;;
52798;SDS011;38667;42.872;74.622;2022-08-03T07:24:05;6.38;;;3.20;;
52798;SDS011;38667;42.872;74.622;2022-08-03T07:26:31;6.85;;;3.08;;
52798;SDS011;38667;42.872;74.622;2022-08-03T07:28:59;4.95;;;2.72;;
52798;SDS011;38667;42.872;74.622;2022-08-03T07:31:25;6.15;;;3.40;;
52798;SDS011;38667;42.872;74.622;2022-08-03T07:33:52;6.30;;;2.83;;
52798;SDS011;38667;42.872;74.622;2022-08-03T07:36:18;8.68;;;3.00;;
52798;SDS011;38667;42.872;74.622;2022-08-03T07:38:44;8.45;;;2.85;;
52798;SDS011;38667;42.872;74.622;2022-08-03T07:41:11;6.72;;;2.90;;
52798;SDS011;38667;42.872;74.622;2022-08-03T07:43:37;7.38;;;2.95;;
52798;SDS011;38667;42.872;74.622;2022-08-03T07:46:05;6.57;;;2.97;;
52798;SDS011;38667;42.872;74.622;2022-08-03T07:48:31;6.80;;;3.10;;
52798;SDS011;38667;42.872;74.622;2022-08-03T07:50:57;7.78;;;2.85;;
52798;SDS011;38667;42.872;74.622;2022-08-03T07:53:24;8.38;;;3.25;;
52798;SDS011;38667;42.872;74.622;2022-08-03T07:55:50;6.10;;;2.80;;
52798;SDS011;38667;42.872;74.622;2022-08-03T07:58:16;6.47;;;2.95;;
52798;SDS011;38667;42.872;74.622;2022-08-03T08:00:43;6.05;;;3.13;;
52798;SDS011;38667;42.872;74.622;2022-08-03T08:03:11;6.45;;;2.83;;
52798;SDS011;38667;42.872;74.622;2022-08-03T08:05:37;7.60;;;3.42;;
52798;SDS011;38667;42.872;74.622;2022-08-03T08:08:03;4.03;;;2.80;;
52798;SDS011;38667;42.872;74.622;2022-08-03T08:10:30;9.25;;;2.90;;
52798;SDS011;38667;42.872;74.622;2022-08-03T08:12:57;7.93;;;3.20;;
52798;SDS011;38667;42.872;74.622;2022-08-03T08:15:24;6.40;;;2.88;;
52798;SDS011;38667;42.872;74.622;2022-08-03T08:17:51;7.15;;;3.05;;
52798;SDS011;38667;42.872;74.622;2022-08-03T08:20:20;4.82;;;2.78;;
52798;SDS011;38667;42.872;74.622;2022-08-03T08:22:48;6.03;;;2.90;;
52798;SDS011;38667;42.872;74.622;2022-08-03T08:25:14;4.03;;;2.50;;
52798;SDS011;38667;42.872;74.622;2022-08-03T08:27:41;8.63;;;2.95;;
52798;SDS011;38667;42.872;74.622;2022-08-03T08:30:10;5.10;;;2.88;;
52798;SDS011;38667;42.872;74.622;2022-08-03T08:32:37;5.68;;;2.30;;
52798;SDS011;38667;42.872;74.622;2022-08-03T08:35:04;12.43;;;3.42;;
52798;SDS011;38667;42.872;74.622;2022-08-03T08:37:32;5.35;;;3.00;;
52798;SDS011;38667;42.872;74.622;2022-08-03T08:39:59;9.48;;;2.90;;
52798;SDS011;38667;42.872;74.622;2022-08-03T08:42:26;6.38;;;3.00;;
52798;SDS011;38667;42.872;74.622;2022-08-03T08:44:52;4.85;;;2.85;;
52798;SDS011;38667;42.872;74.622;2022-08-03T08:47:19;4.70;;;3.13;;
52798;SDS011;38667;42.872;74.622;2022-08-03T08:49:50;5.60;;;2.65;;
52798;SDS011;38667;42.872;74.622;2022-08-03T08:52:18;7.60;;;3.03;;
52798;SDS011;38667;42.872;74.622;2022-08-03T08:54:52;8.80;;;3.20;;
52798;SDS011;38667;42.872;74.622;2022-08-03T08:57:22;7.07;;;2.83;;
52798;SDS011;38667;42.872;74.622;2022-08-03T08:59:53;4.88;;;2.92;;
52798;SDS011;38667;42.872;74.622;2022-08-03T09:02:20;7.20;;;3.08;;
52798;SDS011;38667;42.872;74.622;2022-08-03T09:04:46;12.20;;;4.30;;
52798;SDS011;38667;42.872;74.622;2022-08-03T09:07:13;4.20;;;3.20;;
52798;SDS011;38667;42.872;74.622;2022-08-03T09:09:39;7.07;;;2.88;;
52798;SDS011;38667;42.872;74.622;2022-08-03T09:12:07;6.38;;;3.25;;
52798;SDS011;38667;42.872;74.622;2022-08-03T09:14:34;5.80;;;3.33;;
52798;SDS011;38667;42.872;74.622;2022-08-03T09:17:01;8.35;;;3.45;;
52798;SDS011;38667;42.872;74.622;2022-08-03T09:19:28;6.65;;;3.92;;
52798;SDS011;38667;42.872;74.622;2022-08-03T09:22:08;5.82;;;2.67;;
52798;SDS011;38667;42.872;74.622;2022-08-03T09:24:36;7.68;;;5.03;;
52798;SDS011;38667;42.872;74.622;2022-08-03T09:27:04;7.28;;;3.92;;
52798;SDS011;38667;42.872;74.622;2022-08-03T09:29:35;6.07;;;2.88;;
52798;SDS011;38667;42.872;74.622;2022-08-03T09:32:02;5.82;;;2.80;;
52798;SDS011;38667;42.872;74.622;2022-08-03T09:34:29;8.98;;;2.63;;
52798;SDS011;38667;42.872;74.622;2022-08-03T09:36:56;10.50;;;4.10;;
52798;SDS011;38667;42.872;74.622;2022-08-03T09:39:23;5.65;;;3.40;;
52798;SDS011;38667;42.872;74.622;2022-08-03T09:42:03;9.88;;;2.90;;
52798;SDS011;38667;42.872;74.622;2022-08-03T09:44:34;5.38;;;2.65;;
52798;SDS011;38667;42.872;74.622;2022-08-03T09:47:01;9.32;;;3.67;;
52798;SDS011;38667;42.872;74.622;2022-08-03T09:49:28;9.55;;;3.75;;
52798;SDS011;38667;42.872;74.622;2022-08-03T09:51:54;8.07;;;2.72;;
52798;SDS011;38667;42.872;74.622;2022-08-03T09:54:27;10.68;;;3.75;;
52798;SDS011;38667;42.872;74.622;2022-08-03T09:56:54;6.00;;;2.58;;
52798;SDS011;38667;42.872;74.622;2022-08-03T09:59:22;6.13;;;2.92;;
52798;SDS011;38667;42.872;74.622;2022-08-03T10:01:51;4.90;;;2.90;;
52798;SDS011;38667;42.872;74.622;2022-08-03T10:04:18;4.85;;;2.45;;
52798;SDS011;38667;42.872;74.622;2022-08-03T10:06:44;6.40;;;2.72;;
52798;SDS011;38667;42.872;74.622;2022-08-03T10:09:27;9.02;;;3.10;;
52798;SDS011;38667;42.872;74.622;2022-08-03T10:11:53;2.88;;;2.40;;
52798;SDS011;38667;42.872;74.622;2022-08-03T10:14:20;6.72;;;3.05;;
52798;SDS011;38667;42.872;74.622;2022-08-03T11:45:46;4.13;;;2.55;;
52798;SDS011;38667;42.872;74.622;2022-08-03T11:48:21;8.82;;;2.63;;
52798;SDS011;38667;42.872;74.622;2022-08-03T11:50:50;4.40;;;2.75;;
52798;SDS011;38667;42.872;74.622;2022-08-03T11:53:17;6.30;;;2.75;;
52798;SDS011;38667;42.872;74.622;2022-08-03T11:55:43;4.40;;;3.08;;
52798;SDS011;38667;42.872;74.622;2022-08-03T11:58:14;5.70;;;2.90;;
52798;SDS011;38667;42.872;74.622;2022-08-03T12:00:42;5.47;;;2.50;;
52798;SDS011;38667;42.872;74.622;2022-08-03T12:03:10;4.97;;;3.17;;
52798;SDS011;38667;42.872;74.622;2022-08-03T12:05:38;5.32;;;2.60;;
52798;SDS011;38667;42.872;74.622;2022-08-03T12:08:13;4.78;;;2.60;;
52798;SDS011;38667;42.872;74.622;2022-08-03T12:10:45;7.97;;;2.95;;
52798;SDS011;38667;42.872;74.622;2022-08-03T12:13:13;4.75;;;2.80;;
52798;SDS011;38667;42.872;74.622;2022-08-03T12:15:40;5.07;;;3.03;;
52798;SDS011;38667;42.872;74.622;2022-08-03T12:18:14;4.03;;;2.33;;
52798;SDS011;38667;42.872;74.622;2022-08-03T12:20:42;6.20;;;2.60;;
52798;SDS011;38667;42.872;74.622;2022-08-03T12:23:09;5.63;;;2.70;;
52798;SDS011;38667;42.872;74.622;2022-08-03T12:25:36;5.47;;;2.55;;
52798;SDS011;38667;42.872;74.622;2022-08-03T12:28:08;9.95;;;2.72;;
52798;SDS011;38667;42.872;74.622;2022-08-03T12:30:36;6.90;;;3.00;;
52798;SDS011;38667;42.872;74.622;2022-08-03T12:33:13;4.97;;;2.70;;
52798;SDS011;38667;42.872;74.622;2022-08-03T12:35:40;6.50;;;2.80;;
52798;SDS011;38667;42.872;74.622;2022-08-03T12:38:07;6.57;;;2.67;;
52798;SDS011;38667;42.872;74.622;2022-08-03T12:40:34;10.63;;;3.22;;
52798;SDS011;38667;42.872;74.622;2022-08-03T12:43:00;7.35;;;3.00;;
52798;SDS011;38667;42.872;74.622;2022-08-03T12:45:35;4.60;;;2.70;;
52798;SDS011;38667;42.872;74.622;2022-08-03T12:48:02;8.77;;;3.30;;
52798;SDS011;38667;42.872;74.622;2022-08-03T12:50:34;10.40;;;3.38;;
52798;SDS011;38667;42.872;74.622;2022-08-03T12:53:01;8.32;;;3.80;;
52798;SDS011;38667;42.872;74.622;2022-08-03T12:55:29;7.05;;;3.35;;
52798;SDS011;38667;42.872;74.622;2022-08-03T12:57:56;11.10;;;3.97;;
52798;SDS011;38667;42.872;74.622;2022-08-03T13:00:22;12.60;;;3.83;;
52798;SDS011;38667;42.872;74.622;2022-08-03T13:02:57;8.13;;;3.47;;
52798;SDS011;38667;42.872;74.622;2022-08-03T13:05:24;14.00;;;3.60;;
52798;SDS011;38667;42.872;74.622;2022-08-03T13:07:52;17.02;;;4.80;;
52798;SDS011;38667;42.872;74.622;2022-08-03T13:10:26;8.82;;;4.38;;
52798;SDS011;38667;42.872;74.622;2022-08-03T13:12:53;11.57;;;4.95;;
52798;SDS011;38667;42.872;74.622;2022-08-03T13:15:20;11.05;;;5.35;;
52798;SDS011;38667;42.872;74.622;2022-08-03T13:17:46;12.32;;;6.55;;
52798;SDS011;38667;42.872;74.622;2022-08-03T13:20:12;10.07;;;5.43;;
52798;SDS011;38667;42.872;74.622;2022-08-03T13:22:38;10.40;;;5.55;;
52798;SDS011;38667;42.872;74.622;2022-08-03T13:25:07;13.60;;;4.90;;
52798;SDS011;38667;42.872;74.622;2022-08-03T13:27:33;14.85;;;4.72;;
52798;SDS011;38667;42.872;74.622;2022-08-03T13:29:59;19.30;;;4.65;;
52798;SDS011;38667;42.872;74.622;2022-08-03T13:32:26;8.35;;;4.30;;
52798;SDS011;38667;42.872;74.622;2022-08-03T13:34:52;11.05;;;4.45;;
52798;SDS011;38667;42.872;74.622;2022-08-03T13:37:18;8.75;;;4.38;;
52798;SDS011;38667;42.872;74.622;2022-08-03T13:39:45;6.07;;;3.78;;
52798;SDS011;38667;42.872;74.622;2022-08-03T13:42:12;9.35;;;4.03;;
52798;SDS011;38667;42.872;74.622;2022-08-03T13:44:39;6.15;;;4.00;;
52798;SDS011;38667;42.872;74.622;2022-08-03T13:47:05;13.25;;;4.22;;
52798;SDS011;38667;42.872;74.622;2022-08-03T13:49:31;7.93;;;3.80;;
52798;SDS011;38667;42.872;74.622;2022-08-03T13:51:58;4.85;;;3.20;;
52798;SDS011;38667;42.872;74.622;2022-08-03T13:54:24;5.50;;;3.00;;
52798;SDS011;38667;42.872;74.622;2022-08-03T13:56:50;9.43;;;4.03;;
52798;SDS011;38667;42.872;74.622;2022-08-03T13:59:18;9.82;;;4.28;;
52798;SDS011;38667;42.872;74.622;2022-08-03T14:01:45;8.48;;;3.95;;
52798;SDS011;38667;42.872;74.622;2022-08-03T14:04:11;9.10;;;4.55;;
52798;SDS011;38667;42.872;74.622;2022-08-03T14:06:38;6.18;;;3.85;;
52798;SDS011;38667;42.872;74.622;2022-08-03T14:09:04;9.30;;;3.85;;
52798;SDS011;38667;42.872;74.622;2022-08-03T14:11:31;8.00;;;3.85;;
52798;SDS011;38667;42.872;74.622;2022-08-03T14:13:57;8.98;;;3.72;;
52798;SDS011;38667;42.872;74.622;2022-08-03T14:16:25;6.82;;;3.47;;
52798;SDS011;38667;42.872;74.622;2022-08-03T14:18:51;8.43;;;3.80;;
52798;SDS011;38667;42.872;74.622;2022-08-03T14:21:18;11.15;;;4.63;;
52798;SDS011;38667;42.872;74.622;2022-08-03T14:23:44;10.93;;;5.40;;
52798;SDS011;38667;42.872;74.622;2022-08-03T14:26:10;9.40;;;5.68;;
52798;SDS011;38667;42.872;74.622;2022-08-03T14:28:37;11.60;;;9.18;;
52798;SDS011;38667;42.872;74.622;2022-08-03T14:31:03;16.00;;;9.75;;
52798;SDS011;38667;42.872;74.622;2022-08-03T14:33:31;14.32;;;9.63;;
52798;SDS011;38667;42.872;74.622;2022-08-03T14:35:57;14.50;;;8.00;;
52798;SDS011;38667;42.872;74.622;2022-08-03T14:38:23;10.90;;;6.75;;
52798;SDS011;38667;42.872;74.622;2022-08-03T14:40:50;13.20;;;6.10;;
52798;SDS011;38667;42.872;74.622;2022-08-03T14:43:16;8.93;;;4.28;;
52798;SDS011;38667;42.872;74.622;2022-08-03T14:45:42;8.55;;;4.60;;
52798;SDS011;38667;42.872;74.622;2022-08-03T14:48:09;8.40;;;4.57;;
52798;SDS011;38667;42.872;74.622;2022-08-03T14:50:37;6.95;;;4.40;;
52798;SDS011;38667;42.872;74.622;2022-08-03T14:53:03;7.43;;;3.80;;
52798;SDS011;38667;42.872;74.622;2022-08-03T14:55:29;9.20;;;3.63;;
52798;SDS011;38667;42.872;74.622;2022-08-03T14:57:55;7.93;;;3.83;;
52798;SDS011;38667;42.872;74.622;2022-08-03T15:00:22;7.63;;;4.20;;
52798;SDS011;38667;42.872;74.622;2022-08-03T15:02:48;8.45;;;4.55;;
52798;SDS011;38667;42.872;74.622;2022-08-03T15:05:14;10.75;;;5.32;;
52798;SDS011;38667;42.872;74.622;2022-08-03T15:07:42;12.05;;;5.32;;
52798;SDS011;38667;42.872;74.622;2022-08-03T15:10:08;10.63;;;6.53;;
52798;SDS011;38667;42.872;74.622;2022-08-03T15:12:35;10.93;;;5.78;;
52798;SDS011;38667;42.872;74.622;2022-08-03T15:15:01;10.60;;;5.28;;
52798;SDS011;38667;42.872;74.622;2022-08-03T15:17:27;10.27;;;5.72;;
52798;SDS011;38667;42.872;74.622;2022-08-03T15:19:54;22.77;;;8.05;;
52798;SDS011;38667;42.872;74.622;2022-08-03T15:22:20;16.85;;;7.75;;
52798;SDS011;38667;42.872;74.622;2022-08-03T15:24:48;18.65;;;7.90;;
52798;SDS011;38667;42.872;74.622;2022-08-03T15:27:14;20.83;;;8.52;;
52798;SDS011;38667;42.872;74.622;2022-08-03T15:29:40;17.52;;;8.48;;
52798;SDS011;38667;42.872;74.622;2022-08-03T15:32:07;18.20;;;8.05;;
52798;SDS011;38667;42.872;74.622;2022-08-03T15:34:33;21.38;;;7.45;;
52798;SDS011;38667;42.872;74.622;2022-08-03T15:36:59;19.00;;;8.10;;
52798;SDS011;38667;42.872;74.622;2022-08-03T15:39:26;19.85;;;8.55;;
52798;SDS011;38667;42.872;74.622;2022-08-03T15:41:53;23.23;;;9.15;;
52798;SDS011;38667;42.872;74.622;2022-08-03T15:44:20;21.23;;;7.90;;
52798;SDS011;38667;42.872;74.622;2022-08-03T15:46:46;18.30;;;8.35;;
52798;SDS011;38667;42.872;74.622;2022-08-03T15:49:12;21.45;;;8.40;;
52798;SDS011;38667;42.872;74.622;2022-08-03T15:51:38;17.35;;;7.45;;
52798;SDS011;38667;42.872;74.622;2022-08-03T15:54:05;13.93;;;6.82;;
52798;SDS011;38667;42.872;74.622;2022-08-03T15:56:32;23.85;;;9.70;;
52798;SDS011;38667;42.872;74.622;2022-08-03T15:58:59;17.05;;;8.57;;
52798;SDS011;38667;42.872;74.622;2022-08-03T16:01:26;21.15;;;9.85;;
52798;SDS011;38667;42.872;74.622;2022-08-03T16:03:52;18.23;;;10.50;;
52798;SDS011;38667;42.872;74.622;2022-08-03T16:06:19;22.38;;;9.52;;